Time;durP1;ratioP1;P1;durP2;ratioP2;P2;SDS_P1;SDS_P2;PMS_P1;PMS_P2;Temp;Humidity;BMP_temperature;BMP_pressure;BME280_temperature;BME280_humidity;BME280_pressure;Samples;Min_cycle;Max_cycle;Signal;HPM_P1;HPM_P2
2022/01/16 00:04:05;;;;;;;12.80;8.75;;;-1.90;99.90;;;;;;4979329;28;20074;-74
2022/01/16 00:04:44;;;;;;;16.00;8.38;;;-2.20;99.90;;;;;;4976942;28;20042;-74
2022/01/16 00:07:11;;;;;;;16.58;9.50;;;-2.20;99.90;;;;;;4978479;28;20050;-76
2022/01/16 00:09:38;;;;;;;22.60;10.52;;;-2.10;99.90;;;;;;4973383;28;20521;-73
2022/01/16 00:12:07;;;;;;;22.35;12.98;;;-1.70;99.90;;;;;;4978298;28;20153;-74
2022/01/16 00:14:34;;;;;;;15.20;9.60;;;-1.60;99.90;;;;;;4995174;28;20050;-74
2022/01/16 00:17:01;;;;;;;16.67;12.30;;;-2.00;99.90;;;;;;4979963;28;20046;-74
2022/01/16 00:19:28;;;;;;;16.45;11.57;;;-1.70;99.90;;;;;;4978716;28;20046;-74
2022/01/16 00:21:55;;;;;;;20.25;10.95;;;-1.60;99.90;;;;;;4978272;28;20492;-73
2022/01/16 00:24:22;;;;;;;18.70;12.95;;;-1.90;99.90;;;;;;4976030;28;20046;-74
2022/01/16 00:26:49;;;;;;;14.82;10.00;;;-1.80;99.90;;;;;;4976290;28;20055;-73
2022/01/16 00:29:16;;;;;;;13.07;9.30;;;-1.60;99.90;;;;;;4977297;28;20105;-73
2022/01/16 00:31:44;;;;;;;12.02;9.35;;;-1.60;99.90;;;;;;4980148;28;20062;-73
2022/01/16 00:34:12;;;;;;;15.35;10.90;;;-1.50;99.90;;;;;;4979297;28;20133;-73
2022/01/16 00:36:39;;;;;;;45.08;12.57;;;-1.70;99.90;;;;;;4978061;28;20050;-74
2022/01/16 00:39:07;;;;;;;34.95;13.73;;;-2.20;99.90;;;;;;4978423;28;20134;-74
2022/01/16 00:41:35;;;;;;;17.08;10.70;;;-2.10;99.90;;;;;;4980031;28;20121;-74
2022/01/16 00:44:03;;;;;;;12.07;7.32;;;-1.80;99.90;;;;;;4977798;28;20050;-73
2022/01/16 00:46:30;;;;;;;19.35;12.50;;;-1.80;99.90;;;;;;4979151;28;20097;-74
2022/01/16 00:48:57;;;;;;;17.55;12.25;;;-2.00;99.90;;;;;;4979086;28;20077;-74
2022/01/16 00:51:24;;;;;;;20.98;14.32;;;-1.90;99.90;;;;;;4974847;28;20046;-74
2022/01/16 00:53:51;;;;;;;9.25;6.97;;;-1.80;99.90;;;;;;4960638;28;20070;-73
2022/01/16 00:56:18;;;;;;;13.30;8.38;;;-2.30;99.90;;;;;;4977146;28;20084;-74
2022/01/16 00:58:45;;;;;;;10.55;7.50;;;-2.60;99.90;;;;;;4972242;28;20498;-74
2022/01/16 01:01:14;;;;;;;11.00;7.40;;;-2.60;99.90;;;;;;4976471;28;20598;-74
2022/01/16 01:03:41;;;;;;;10.82;8.60;;;-2.50;99.90;;;;;;4978907;28;20289;-74
2022/01/16 01:06:08;;;;;;;14.07;8.75;;;-2.70;99.90;;;;;;4978426;28;20395;-75
2022/01/16 01:08:35;;;;;;;12.25;7.97;;;-2.70;99.90;;;;;;4976243;28;20137;-73
2022/01/16 01:11:07;;;;;;;6.43;5.72;;;-2.60;99.90;;;;;;4975236;28;20046;-74
2022/01/16 01:13:55;;;;;;;11.68;8.32;;;-2.50;99.90;;;;;;4974910;28;20485;-75
2022/01/16 01:16:22;;;;;;;11.57;7.78;;;-2.50;99.90;;;;;;4975178;28;20053;-75
2022/01/16 01:18:49;;;;;;;21.30;13.60;;;-2.50;99.90;;;;;;4976159;28;20046;-75
2022/01/16 01:21:27;;;;;;;18.83;12.60;;;-2.30;99.90;;;;;;4974933;28;20130;-74
2022/01/16 01:23:57;;;;;;;16.00;10.73;;;-1.90;99.90;;;;;;4976767;28;20057;-74
2022/01/16 01:26:29;;;;;;;13.40;10.13;;;-2.00;99.90;;;;;;4975516;28;20035;-75
2022/01/16 01:28:56;;;;;;;19.20;10.75;;;-2.20;99.90;;;;;;4975880;28;20062;-75
2022/01/16 01:31:26;;;;;;;16.38;11.50;;;-2.10;99.90;;;;;;4973617;28;20046;-75
2022/01/16 01:33:53;;;;;;;19.17;13.15;;;-1.80;99.90;;;;;;4975812;28;20066;-74
2022/01/16 01:36:20;;;;;;;15.73;11.40;;;-1.60;99.90;;;;;;4977364;28;20042;-75
2022/01/16 01:38:47;;;;;;;24.40;14.57;;;-1.90;99.90;;;;;;4979210;28;20038;-74
2022/01/16 01:41:14;;;;;;;16.70;10.00;;;-2.20;99.90;;;;;;4978509;28;20054;-75
2022/01/16 01:51:44;;;;;;;53.00;14.43;;;-1.80;99.90;;;;;;4978663;28;20043;-75
2022/01/16 01:54:13;;;;;;;23.58;14.93;;;-1.60;99.90;;;;;;4980674;28;20124;-74
2022/01/16 01:56:41;;;;;;;17.25;11.32;;;-1.90;99.90;;;;;;4978875;28;20042;-74
2022/01/16 01:59:08;;;;;;;22.67;14.73;;;-2.00;99.90;;;;;;4976861;28;20491;-75
2022/01/16 02:01:36;;;;;;;39.58;14.05;;;-1.90;99.90;;;;;;4978540;28;20122;-74
2022/01/16 02:04:03;;;;;;;26.60;11.70;;;-1.90;99.90;;;;;;4981177;28;20619;-74
2022/01/16 02:06:32;;;;;;;20.65;11.27;;;-2.10;99.90;;;;;;4980617;28;20034;-74
2022/01/16 02:09:04;;;;;;;49.10;13.85;;;-2.00;99.90;;;;;;4981424;28;20293;-74
2022/01/16 02:11:33;;;;;;;40.00;12.32;;;-2.10;99.90;;;;;;4983306;28;20570;-73
2022/01/16 02:35:44;;;;;;;17.55;10.13;;;-1.90;99.90;;;;;;4984003;28;20053;-75
2022/01/16 02:38:12;;;;;;;23.27;10.05;;;-2.30;99.90;;;;;;4989533;28;20069;-74
2022/01/16 02:40:43;;;;;;;21.88;11.18;;;-2.30;99.90;;;;;;4974139;28;20398;-75
2022/01/16 02:43:11;;;;;;;19.77;10.15;;;-2.40;99.90;;;;;;4971896;28;20069;-74
2022/01/16 02:45:45;;;;;;;14.70;8.93;;;-2.50;99.90;;;;;;4989648;28;20446;-75
2022/01/16 02:48:14;;;;;;;12.82;9.23;;;-2.50;99.90;;;;;;4990065;28;20045;-75
2022/01/16 02:50:41;;;;;;;28.95;13.55;;;-2.50;99.90;;;;;;4988207;28;20145;-74
2022/01/16 02:53:11;;;;;;;25.92;11.82;;;-2.30;99.90;;;;;;4987923;28;20146;-75
2022/01/16 02:55:41;;;;;;;13.60;7.00;;;-2.50;99.90;;;;;;4990770;28;20133;-75
2022/01/16 02:58:08;;;;;;;29.70;10.80;;;-2.60;99.90;;;;;;4974569;28;20054;-75
2022/01/16 03:00:36;;;;;;;57.17;15.93;;;-2.50;99.90;;;;;;4990954;28;20070;-75
2022/01/16 03:03:03;;;;;;;48.92;13.05;;;-2.40;99.90;;;;;;4990089;28;20530;-75
2022/01/16 03:05:30;;;;;;;45.22;14.38;;;-2.50;99.90;;;;;;4991287;28;20177;-74
2022/01/16 03:07:57;;;;;;;31.55;12.75;;;-2.20;99.90;;;;;;4988873;28;20566;-75
2022/01/16 03:12:52;;;;;;;14.43;8.90;;;-2.60;99.90;;;;;;4991129;28;20054;-75
2022/01/16 03:15:20;;;;;;;15.13;8.88;;;-2.30;99.90;;;;;;4988591;28;20089;-75
2022/01/16 03:23:20;;;;;;;15.85;8.85;;;-2.40;99.90;;;;;;4989822;28;20039;-74
2022/01/16 03:25:47;;;;;;;46.42;14.45;;;-2.30;99.90;;;;;;4990594;28;20177;-74
2022/01/16 03:28:14;;;;;;;39.95;13.52;;;-2.60;99.90;;;;;;4990882;28;20122;-75
2022/01/16 03:30:42;;;;;;;24.40;12.60;;;-2.90;99.90;;;;;;5005353;28;20447;-75
2022/01/16 03:33:10;;;;;;;23.90;13.80;;;-2.70;99.90;;;;;;4986633;28;20058;-74
2022/01/16 03:35:37;;;;;;;20.63;13.10;;;-2.50;99.90;;;;;;4988546;28;20053;-74
2022/01/16 03:38:05;;;;;;;12.70;8.30;;;-2.50;99.90;;;;;;4987399;28;20587;-75
2022/01/16 03:40:32;;;;;;;12.93;8.93;;;-2.60;99.90;;;;;;4986197;28;20039;-74
2022/01/16 03:43:09;;;;;;;16.80;12.25;;;-2.60;99.90;;;;;;4989402;28;20474;-75
2022/01/16 03:45:36;;;;;;;11.95;8.63;;;-2.60;99.90;;;;;;4988558;28;20125;-75
2022/01/16 03:48:04;;;;;;;11.85;8.52;;;-2.70;99.90;;;;;;4986242;28;20728;-75
2022/01/16 03:50:31;;;;;;;24.65;12.40;;;-2.80;99.90;;;;;;4989696;28;20189;-75
2022/01/16 03:52:58;;;;;;;24.10;11.30;;;-2.90;99.90;;;;;;4989363;28;20038;-74
2022/01/16 03:55:25;;;;;;;20.42;12.25;;;-2.80;99.90;;;;;;4982874;28;20053;-75
2022/01/16 03:57:52;;;;;;;23.52;11.90;;;-2.60;99.90;;;;;;4985835;28;20243;-74
2022/01/16 04:00:19;;;;;;;30.33;13.13;;;-2.50;99.90;;;;;;4989122;28;20030;-75
2022/01/16 04:02:46;;;;;;;13.93;9.68;;;-2.50;99.90;;;;;;4988695;28;20189;-74
2022/01/16 04:05:13;;;;;;;19.23;10.02;;;-2.50;99.90;;;;;;4972785;28;20081;-74
2022/01/16 04:07:41;;;;;;;12.75;10.15;;;-2.40;99.90;;;;;;4989550;28;20305;-75
2022/01/16 04:10:08;;;;;;;15.70;10.90;;;-2.30;99.90;;;;;;4988711;28;20105;-75
2022/01/16 04:12:38;;;;;;;15.65;11.88;;;-2.30;99.90;;;;;;4987801;28;20564;-75
2022/01/16 04:17:44;;;;;;;11.95;9.65;;;-2.30;99.90;;;;;;4969761;28;20070;-74
2022/01/16 04:20:15;;;;;;;12.75;10.00;;;-2.70;99.90;;;;;;4969085;28;20148;-75
2022/01/16 04:22:45;;;;;;;15.48;11.00;;;-2.60;99.90;;;;;;4990903;28;20572;-74
2022/01/16 04:25:13;;;;;;;12.55;10.20;;;-2.50;99.90;;;;;;4990808;28;20098;-74
2022/01/16 04:27:41;;;;;;;19.00;11.43;;;-2.20;99.90;;;;;;4987635;28;20582;-75
2022/01/16 04:30:09;;;;;;;15.50;10.75;;;-2.10;99.90;;;;;;4987824;28;20034;-74
2022/01/16 04:32:36;;;;;;;15.88;11.07;;;-2.40;99.90;;;;;;4970514;28;20051;-73
2022/01/16 04:35:04;;;;;;;12.65;10.15;;;-2.40;99.90;;;;;;4970404;28;20146;-74
2022/01/16 04:37:31;;;;;;;17.70;11.90;;;-2.30;99.90;;;;;;4988723;28;20121;-75
2022/01/16 04:40:00;;;;;;;17.67;11.60;;;-2.20;99.90;;;;;;5003898;28;20042;-75
2022/01/16 04:45:19;;;;;;;18.10;12.43;;;-2.20;99.90;;;;;;4987215;28;20188;-74
2022/01/16 04:47:50;;;;;;;17.88;11.38;;;-2.60;99.90;;;;;;4979917;28;20086;-74
2022/01/16 04:50:17;;;;;;;16.08;11.55;;;-2.30;99.90;;;;;;4986894;28;20117;-74
2022/01/16 04:52:45;;;;;;;14.00;10.52;;;-2.20;99.90;;;;;;4989365;28;20108;-75
2022/01/16 04:55:13;;;;;;;17.63;12.18;;;-2.30;99.90;;;;;;4983935;28;20047;-74
2022/01/16 04:57:41;;;;;;;13.30;9.73;;;-2.40;99.90;;;;;;4989409;28;20043;-74
2022/01/16 05:00:15;;;;;;;13.63;9.68;;;-2.60;99.90;;;;;;4986009;28;20041;-74
2022/01/16 05:02:42;;;;;;;12.75;9.90;;;-2.60;99.90;;;;;;4987642;28;20046;-74
2022/01/16 05:05:10;;;;;;;12.60;9.70;;;-2.60;99.90;;;;;;4988050;28;20477;-74
2022/01/16 05:07:37;;;;;;;12.15;7.55;;;-2.30;99.90;;;;;;4969180;28;20129;-75
2022/01/16 05:10:06;;;;;;;18.15;12.75;;;-2.60;99.90;;;;;;4969550;28;20125;-75
2022/01/16 05:12:35;;;;;;;11.23;8.13;;;-2.50;99.90;;;;;;4966876;28;20573;-75
2022/01/16 05:17:49;;;;;;;14.35;9.15;;;-2.50;99.90;;;;;;4926951;29;20095;-75
2022/01/16 05:20:16;;;;;;;19.10;13.25;;;-2.60;99.90;;;;;;4912183;29;20048;-74
2022/01/16 05:22:43;;;;;;;15.75;11.40;;;-2.30;99.90;;;;;;4914703;29;20052;-75
2022/01/16 05:25:13;;;;;;;17.42;10.20;;;-2.20;99.90;;;;;;4911790;29;20036;-75
2022/01/16 05:27:40;;;;;;;14.20;10.15;;;-2.40;99.90;;;;;;4928425;29;20067;-75
2022/01/16 05:30:08;;;;;;;16.45;11.02;;;-2.40;99.90;;;;;;4912059;29;20479;-75
2022/01/16 05:32:35;;;;;;;19.15;11.73;;;-2.30;99.90;;;;;;4912714;29;20052;-75
2022/01/16 05:35:07;;;;;;;17.25;11.75;;;-2.40;99.90;;;;;;4932533;29;20083;-74
2022/01/16 05:37:35;;;;;;;15.20;11.43;;;-2.30;99.90;;;;;;4927914;29;20131;-74
2022/01/16 05:40:03;;;;;;;18.23;12.73;;;-2.10;99.90;;;;;;4910273;29;20127;-75
2022/01/16 05:42:32;;;;;;;18.83;14.00;;;-2.10;99.90;;;;;;4919362;29;20127;-74
2022/01/16 05:44:59;;;;;;;19.65;13.13;;;-2.10;99.90;;;;;;4966514;28;20571;-75
2022/01/16 05:47:26;;;;;;;19.25;12.75;;;-2.00;99.90;;;;;;4970618;28;20134;-74
2022/01/16 05:49:53;;;;;;;17.13;12.90;;;-1.90;99.90;;;;;;4984783;28;20046;-74
2022/01/16 05:52:41;;;;;;;19.13;13.38;;;-2.10;99.90;;;;;;4983306;28;20235;-75
2022/01/16 05:55:08;;;;;;;15.70;11.13;;;-2.10;99.90;;;;;;4978985;28;20046;-75
2022/01/16 05:57:36;;;;;;;22.08;14.05;;;-2.20;99.90;;;;;;4986834;28;20580;-75
2022/01/16 06:00:05;;;;;;;20.83;14.15;;;-2.30;99.90;;;;;;4992036;28;20042;-75
2022/01/16 06:02:33;;;;;;;19.85;13.43;;;-2.10;99.90;;;;;;4978419;28;20144;-74
2022/01/16 06:05:01;;;;;;;19.08;13.70;;;-2.10;99.90;;;;;;4977348;28;20038;-74
2022/01/16 06:07:28;;;;;;;15.65;12.02;;;-1.90;99.90;;;;;;4990570;28;20466;-74
2022/01/16 06:09:55;;;;;;;12.98;9.60;;;-1.80;99.90;;;;;;5006590;28;20570;-75
2022/01/16 06:12:22;;;;;;;15.43;10.65;;;-2.30;99.90;;;;;;4991581;28;20078;-75
2022/01/16 06:14:49;;;;;;;12.15;8.70;;;-2.40;99.90;;;;;;4992092;28;20038;-75
2022/01/16 06:17:17;;;;;;;17.77;13.05;;;-2.50;99.90;;;;;;4991298;28;20383;-75
2022/01/16 06:19:44;;;;;;;13.90;10.38;;;-2.30;99.90;;;;;;4983850;28;20073;-75
2022/01/16 06:22:10;;;;;;;17.00;11.25;;;-2.30;99.90;;;;;;4989598;28;20038;-74
2022/01/16 06:24:37;;;;;;;13.98;8.00;;;-2.40;99.90;;;;;;4986947;28;22347;-75
2022/01/16 06:27:05;;;;;;;13.60;9.88;;;-2.60;99.90;;;;;;4988500;28;20167;-75
2022/01/16 06:29:32;;;;;;;15.45;11.73;;;-2.50;99.90;;;;;;4990185;28;20463;-75
2022/01/16 06:31:58;;;;;;;21.20;12.52;;;-2.50;99.90;;;;;;4977342;28;20125;-75
2022/01/16 06:34:25;;;;;;;16.98;11.95;;;-2.30;99.90;;;;;;4971704;28;20141;-75
2022/01/16 06:36:53;;;;;;;17.17;12.63;;;-2.20;99.90;;;;;;4986063;28;20100;-75
2022/01/16 06:39:20;;;;;;;16.92;9.02;;;-1.90;99.90;;;;;;4987552;28;20101;-75
2022/01/16 06:41:47;;;;;;;17.13;12.23;;;-2.40;99.90;;;;;;4973368;28;20039;-75
2022/01/16 06:44:34;;;;;;;18.13;12.77;;;-2.50;99.90;;;;;;4990938;28;20112;-75
2022/01/16 06:47:00;;;;;;;16.50;11.20;;;-2.40;99.90;;;;;;4990904;28;20085;-75
2022/01/16 06:49:27;;;;;;;20.50;13.80;;;-2.30;99.90;;;;;;4990548;28;20042;-75
2022/01/16 06:51:57;;;;;;;17.85;12.98;;;-2.20;99.90;;;;;;4989161;28;20145;-75
2022/01/16 06:54:24;;;;;;;21.77;13.98;;;-2.10;99.90;;;;;;4978468;28;20042;-75
2022/01/16 06:56:51;;;;;;;17.88;13.35;;;-2.40;99.90;;;;;;4989022;28;20093;-75
2022/01/16 06:59:18;;;;;;;21.83;15.32;;;-2.20;99.90;;;;;;4990656;28;20042;-75
2022/01/16 07:01:49;;;;;;;20.88;13.63;;;-2.20;99.90;;;;;;4989550;28;20565;-75
2022/01/16 07:04:16;;;;;;;22.95;15.60;;;-2.30;99.90;;;;;;4989856;28;20409;-75
2022/01/16 07:06:43;;;;;;;25.33;17.38;;;-2.30;99.90;;;;;;4952165;28;20105;-75
2022/01/16 07:09:10;;;;;;;20.85;14.65;;;-2.10;99.90;;;;;;4968736;28;20539;-75
2022/01/16 07:11:37;;;;;;;26.33;16.63;;;-1.90;99.90;;;;;;4966038;28;20078;-75
2022/01/16 07:14:04;;;;;;;25.52;16.65;;;-2.00;99.90;;;;;;4936805;28;20047;-76
2022/01/16 07:16:31;;;;;;;21.40;14.15;;;-2.20;99.90;;;;;;4963640;28;20074;-75
2022/01/16 07:18:58;;;;;;;26.33;15.23;;;-2.30;99.90;;;;;;4948802;28;20069;-75
2022/01/16 07:21:25;;;;;;;22.45;14.80;;;-2.40;99.90;;;;;;4966877;28;20058;-74
2022/01/16 07:23:53;;;;;;;25.23;16.98;;;-2.10;99.90;;;;;;4952412;28;20126;-75
2022/01/16 07:26:20;;;;;;;26.13;14.38;;;-2.30;99.90;;;;;;4946779;28;20042;-75
2022/01/16 07:28:47;;;;;;;30.25;16.63;;;-2.20;99.90;;;;;;4951894;28;20074;-75
2022/01/16 07:31:14;;;;;;;34.30;18.27;;;-2.20;99.90;;;;;;4966437;28;20090;-75
2022/01/16 07:33:41;;;;;;;24.75;14.45;;;-2.00;99.90;;;;;;4951673;28;20589;-74
2022/01/16 07:36:08;;;;;;;22.98;13.77;;;-2.20;99.90;;;;;;4949919;28;20581;-75
2022/01/16 07:38:35;;;;;;;48.25;20.30;;;-2.30;99.90;;;;;;4950593;28;20534;-75
2022/01/16 07:41:03;;;;;;;37.85;18.70;;;-2.30;99.90;;;;;;4950919;28;20109;-74
2022/01/16 07:43:30;;;;;;;27.75;16.85;;;-2.20;99.90;;;;;;4971448;28;20477;-75
2022/01/16 07:45:57;;;;;;;28.13;17.27;;;-2.20;99.90;;;;;;4988287;28;20157;-76
2022/01/16 07:48:24;;;;;;;24.75;14.05;;;-2.10;99.90;;;;;;4987534;28;20571;-76
2022/01/16 07:50:51;;;;;;;27.60;16.35;;;-1.90;99.90;;;;;;4985496;28;20070;-75
2022/01/16 07:53:18;;;;;;;23.88;14.45;;;-2.20;99.90;;;;;;4984397;28;20045;-75
2022/01/16 07:55:45;;;;;;;18.17;11.88;;;-2.40;99.90;;;;;;4987441;28;20393;-75
2022/01/16 07:58:12;;;;;;;29.80;16.85;;;-2.40;99.90;;;;;;4989064;28;20482;-75
2022/01/16 08:00:39;;;;;;;29.83;15.52;;;-2.20;99.90;;;;;;4986531;28;20477;-76
2022/01/16 08:03:06;;;;;;;22.48;12.73;;;-2.10;99.90;;;;;;4987794;28;20046;-75
2022/01/16 08:05:36;;;;;;;21.63;13.90;;;-2.30;99.90;;;;;;4987373;28;20038;-75
2022/01/16 08:08:04;;;;;;;24.88;16.02;;;-2.40;99.90;;;;;;4986110;28;20133;-75
2022/01/16 08:10:31;;;;;;;24.52;15.02;;;-2.50;99.90;;;;;;4967937;28;20395;-75
2022/01/16 08:12:58;;;;;;;21.85;14.50;;;-2.10;99.90;;;;;;4986727;28;20064;-76
2022/01/16 08:15:25;;;;;;;24.63;14.82;;;-2.10;99.90;;;;;;4988350;28;20054;-75
2022/01/16 08:17:53;;;;;;;27.60;15.27;;;-2.20;99.90;;;;;;4971135;28;20043;-75
2022/01/16 08:20:20;;;;;;;33.55;18.17;;;-2.10;99.90;;;;;;4987356;28;20054;-76
2022/01/16 08:22:47;;;;;;;33.92;17.50;;;-2.30;99.90;;;;;;4984890;28;20137;-75
2022/01/16 08:25:14;;;;;;;27.92;15.93;;;-2.20;99.90;;;;;;4988184;28;20125;-75
2022/01/16 08:27:41;;;;;;;29.35;16.42;;;-2.40;99.90;;;;;;4985485;28;20042;-75
2022/01/16 08:30:09;;;;;;;26.55;15.20;;;-2.40;99.90;;;;;;4986161;28;20070;-76
2022/01/16 08:32:38;;;;;;;25.40;14.68;;;-2.30;99.90;;;;;;4987086;28;20105;-75
2022/01/16 08:35:06;;;;;;;25.65;15.18;;;-2.30;99.90;;;;;;4955880;28;20078;-75
2022/01/16 08:37:33;;;;;;;29.85;17.45;;;-2.10;99.90;;;;;;4980775;28;20113;-75
2022/01/16 08:40:05;;;;;;;26.90;15.45;;;-2.30;99.90;;;;;;4987009;28;20042;-74
2022/01/16 08:42:35;;;;;;;26.70;15.80;;;-2.10;99.90;;;;;;4985531;28;20530;-75
2022/01/16 08:45:04;;;;;;;35.97;18.88;;;-2.20;99.90;;;;;;4987378;28;20135;-75
2022/01/16 08:47:31;;;;;;;21.95;13.10;;;-2.30;99.90;;;;;;4982990;28;20063;-74
2022/01/16 08:49:58;;;;;;;28.90;15.18;;;-2.40;99.90;;;;;;4983612;28;20292;-75
2022/01/16 08:52:26;;;;;;;22.42;11.93;;;-2.60;99.90;;;;;;4987767;28;20043;-75
2022/01/16 08:54:53;;;;;;;37.08;19.02;;;-2.30;99.90;;;;;;4987184;28;20105;-74
2022/01/16 08:57:20;;;;;;;34.92;17.23;;;-2.10;99.90;;;;;;4986531;28;20078;-75
2022/01/16 08:59:48;;;;;;;36.08;19.50;;;-2.20;99.90;;;;;;4986537;28;20052;-74
2022/01/16 09:02:15;;;;;;;40.88;18.90;;;-2.00;99.90;;;;;;4986896;28;20426;-75
2022/01/16 09:04:42;;;;;;;29.00;16.23;;;-2.00;99.90;;;;;;4986612;28;20121;-75
2022/01/16 09:07:10;;;;;;;39.03;19.67;;;-2.10;99.90;;;;;;4986796;28;20047;-75
2022/01/16 09:09:37;;;;;;;39.13;19.38;;;-2.10;99.90;;;;;;4986221;28;20560;-75
2022/01/16 09:12:04;;;;;;;26.15;13.90;;;-2.00;99.90;;;;;;4986730;28;20110;-75
2022/01/16 09:14:31;;;;;;;28.77;15.52;;;-1.90;99.90;;;;;;4990470;28;20038;-74
2022/01/16 09:16:58;;;;;;;35.25;17.85;;;-2.00;99.90;;;;;;4992091;28;20324;-75
2022/01/16 09:19:25;;;;;;;28.55;16.05;;;-1.90;99.90;;;;;;4993456;28;20557;-75
2022/01/16 09:21:52;;;;;;;32.50;17.50;;;-1.90;99.90;;;;;;4986051;28;20105;-75
2022/01/16 09:24:19;;;;;;;26.13;15.18;;;-1.90;99.90;;;;;;4991934;28;20039;-74
2022/01/16 09:26:46;;;;;;;25.52;13.70;;;-2.10;99.90;;;;;;4973843;28;20042;-75
2022/01/16 09:29:13;;;;;;;33.05;15.85;;;-1.90;99.90;;;;;;4992222;28;20082;-75
2022/01/16 09:31:40;;;;;;;29.50;15.13;;;-1.90;99.90;;;;;;4988266;28;20436;-75
2022/01/16 09:34:07;;;;;;;35.53;17.70;;;-2.10;99.90;;;;;;4990742;28;20089;-74
2022/01/16 09:36:34;;;;;;;34.30;16.48;;;-2.10;99.90;;;;;;4985092;28;20042;-75
2022/01/16 09:39:01;;;;;;;33.22;16.58;;;-1.80;99.90;;;;;;5003486;28;20446;-75
2022/01/16 09:41:29;;;;;;;24.38;14.30;;;-1.70;99.90;;;;;;4984081;28;20034;-75
2022/01/16 09:43:56;;;;;;;30.33;16.88;;;-1.70;99.90;;;;;;4990261;28;20433;-73
2022/01/16 09:46:23;;;;;;;31.05;16.00;;;-1.70;99.90;;;;;;4988396;28;20065;-73
2022/01/16 09:48:50;;;;;;;37.55;15.85;;;-1.80;99.90;;;;;;4988847;28;20125;-73
2022/01/16 09:51:17;;;;;;;38.30;17.58;;;-1.80;99.90;;;;;;4990988;28;20486;-73
2022/01/16 09:53:47;;;;;;;29.50;16.00;;;-1.60;99.90;;;;;;4983344;28;20038;-73
2022/01/16 09:56:15;;;;;;;33.38;17.05;;;-1.60;99.90;;;;;;4988110;28;20049;-73
2022/01/16 09:58:42;;;;;;;28.30;15.43;;;-1.40;99.90;;;;;;4988057;28;20066;-73
2022/01/16 10:01:09;;;;;;;29.48;15.77;;;-1.50;99.90;;;;;;4989747;28;20121;-73
2022/01/16 10:03:40;;;;;;;28.80;15.70;;;-1.60;99.90;;;;;;4989272;28;20047;-73
2022/01/16 10:06:19;;;;;;;28.60;17.97;;;-1.50;99.90;;;;;;4973912;28;20050;-73
2022/01/16 10:08:47;;;;;;;34.67;19.52;;;-1.50;99.90;;;;;;4990794;28;20141;-73
2022/01/16 10:11:30;;;;;;;36.28;18.67;;;-1.50;99.90;;;;;;4988098;28;20465;-73
2022/01/16 10:14:08;;;;;;;33.83;16.52;;;-1.50;99.90;;;;;;4989561;28;20046;-73
2022/01/16 10:16:40;;;;;;;32.65;16.35;;;-1.40;99.90;;;;;;4990742;28;20042;-73
2022/01/16 10:19:20;;;;;;;30.50;16.58;;;-1.70;99.90;;;;;;4952239;28;20042;-73
2022/01/16 10:21:48;;;;;;;35.28;15.23;;;-1.40;99.90;;;;;;4969244;28;20047;-73
2022/01/16 10:24:24;;;;;;;39.63;19.60;;;-1.70;99.90;;;;;;4967511;28;20085;-73
2022/01/16 10:27:12;;;;;;;32.47;16.35;;;-1.60;99.90;;;;;;4968670;28;20050;-73
2022/01/16 10:30:01;;;;;;;23.05;12.73;;;-1.70;99.90;;;;;;4949271;28;20066;-73
2022/01/16 10:32:31;;;;;;;29.73;15.65;;;-1.80;99.90;;;;;;4935439;28;20058;-73
2022/01/16 10:35:21;;;;;;;26.52;15.20;;;-1.60;99.90;;;;;;4961995;28;20530;-73
2022/01/16 10:37:53;;;;;;;30.38;16.08;;;-1.70;99.90;;;;;;4936317;28;20085;-73
2022/01/16 10:40:31;;;;;;;27.15;15.85;;;-1.70;99.90;;;;;;4967246;28;20039;-73
2022/01/16 10:43:04;;;;;;;27.35;15.32;;;-1.30;99.90;;;;;;4963950;28;20129;-74
2022/01/16 10:45:34;;;;;;;30.52;15.35;;;;;;;;;;4964622;28;20196;-73
2022/01/16 10:48:03;;;;;;;31.77;16.00;;;-1.40;99.90;;;;;;4966047;28;20069;-73
2022/01/16 10:50:39;;;;;;;25.58;14.63;;;-1.40;99.90;;;;;;4947434;28;20101;-74
2022/01/16 10:53:15;;;;;;;36.50;17.90;;;-1.60;99.90;;;;;;4965132;28;20050;-73
2022/01/16 10:55:54;;;;;;;26.70;14.43;;;-1.60;99.90;;;;;;4950296;28;20168;-73
2022/01/16 10:58:30;;;;;;;29.92;16.65;;;-1.70;99.90;;;;;;4988330;28;20064;-73
2022/01/16 11:01:05;;;;;;;32.58;17.17;;;-1.40;99.90;;;;;;4981099;28;20176;-73
2022/01/16 11:03:49;;;;;;;27.00;14.80;;;-1.40;99.90;;;;;;4984867;28;20085;-74
2022/01/16 11:06:18;;;;;;;30.20;15.68;;;-1.70;99.90;;;;;;4986614;28;20041;-73
2022/01/16 11:09:03;;;;;;;21.70;13.80;;;-1.40;99.90;;;;;;4986425;28;20080;-74
2022/01/16 11:11:32;;;;;;;37.35;18.67;;;-1.60;99.90;;;;;;4984819;28;20073;-74
2022/01/16 11:14:04;;;;;;;27.58;14.68;;;-1.20;99.90;;;;;;4989505;28;20046;-75
2022/01/16 11:16:31;;;;;;;;;;;-1.50;99.90;;;;;;4985221;28;20069;-76
2022/01/16 11:18:59;;;;;;;28.73;16.02;;;-1.40;99.90;;;;;;4987648;28;19973;-75
2022/01/16 11:21:34;;;;;;;29.75;16.95;;;-1.30;99.90;;;;;;4987678;28;20464;-74
2022/01/16 11:24:24;;;;;;;24.92;13.90;;;-1.30;99.90;;;;;;4986643;28;20089;-76
2022/01/16 11:26:52;;;;;;;26.13;14.77;;;-1.00;99.90;;;;;;4987258;28;20102;-75
2022/01/16 11:29:19;;;;;;;31.90;16.15;;;-0.90;99.90;;;;;;4988635;28;20030;-73
2022/01/16 11:31:48;;;;;;;30.65;15.98;;;-1.10;99.90;;;;;;4989146;28;20049;-73
2022/01/16 11:34:15;;;;;;;35.72;17.05;;;-1.20;99.90;;;;;;4961147;28;20101;-73
2022/01/16 11:36:43;;;;;;;34.35;18.10;;;-1.00;99.90;;;;;;4958786;28;20783;-74
2022/01/16 11:39:11;;;;;;;29.52;16.52;;;-1.00;99.90;;;;;;4944018;28;20051;-73
2022/01/16 11:41:54;;;;;;;21.42;12.55;;;-1.00;99.90;;;;;;4966317;28;20149;-74
2022/01/16 11:44:27;;;;;;;32.25;17.48;;;-0.60;99.90;;;;;;4949916;28;20066;-74
2022/01/16 11:46:58;;;;;;;34.83;17.35;;;-0.60;99.90;;;;;;4964113;28;20128;-74
2022/01/16 11:49:51;;;;;;;27.80;15.85;;;-0.50;99.90;;;;;;4935287;28;20094;-75
2022/01/16 11:52:19;;;;;;;34.03;18.73;;;-0.70;99.90;;;;;;4945586;28;20134;-74
2022/01/16 11:54:49;;;;;;;29.15;17.08;;;-1.10;99.90;;;;;;4949242;28;20102;-74
2022/01/16 11:57:20;;;;;;;31.40;18.23;;;-0.90;99.90;;;;;;4965974;28;20051;-74
2022/01/16 11:59:50;;;;;;;28.40;16.00;;;-0.60;99.90;;;;;;4942341;28;20506;-74
2022/01/16 12:02:20;;;;;;;29.90;16.15;;;-0.50;99.90;;;;;;4966953;28;20039;-74
2022/01/16 12:04:49;;;;;;;29.05;16.67;;;-0.50;99.90;;;;;;4970298;28;20050;-73
2022/01/16 12:07:20;;;;;;;37.97;19.45;;;-0.60;99.90;;;;;;4981071;28;20044;-74
2022/01/16 12:09:52;;;;;;;32.75;17.90;;;-0.70;99.90;;;;;;4981759;28;20125;-73
2022/01/16 12:12:19;;;;;;;29.35;15.82;;;-0.90;99.90;;;;;;4983265;28;20051;-74
2022/01/16 12:14:55;;;;;;;26.42;15.95;;;-0.80;99.90;;;;;;4983121;28;20042;-74
2022/01/16 12:17:44;;;;;;;29.67;16.67;;;-0.50;99.90;;;;;;4982520;28;20081;-74
2022/01/16 12:20:17;;;;;;;28.30;17.10;;;-0.50;99.90;;;;;;4978180;28;20145;-74
2022/01/16 12:22:49;;;;;;;28.67;16.52;;;-0.70;99.90;;;;;;4975901;28;20112;-74
2022/01/16 12:25:37;;;;;;;36.88;19.10;;;-0.90;99.90;;;;;;4975394;28;20425;-74
2022/01/16 12:28:10;;;;;;;32.83;17.75;;;-0.80;99.90;;;;;;4975405;28;20133;-74
2022/01/16 12:31:06;;;;;;;37.20;18.38;;;-0.70;99.90;;;;;;4977128;28;20137;-74
2022/01/16 12:33:44;;;;;;;31.80;16.85;;;-0.70;99.90;;;;;;4975113;28;20498;-74
2022/01/16 12:36:16;;;;;;;32.50;17.92;;;-0.40;99.90;;;;;;4979191;28;20038;-74
2022/01/16 12:38:45;;;;;;;33.42;16.33;;;-0.60;99.90;;;;;;4983545;28;20047;-74
2022/01/16 12:41:31;;;;;;;32.13;17.88;;;-0.70;99.90;;;;;;4982970;28;20039;-75
2022/01/16 12:44:08;;;;;;;33.38;18.90;;;-0.60;99.90;;;;;;4979977;28;20066;-75
2022/01/16 12:46:37;;;;;;;28.80;16.95;;;-0.60;99.90;;;;;;4968197;28;20086;-74
2022/01/16 12:49:08;;;;;;;31.83;17.35;;;-0.60;99.90;;;;;;4985543;28;20037;-74
2022/01/16 12:51:37;;;;;;;;;;;-0.50;99.90;;;;;;4985755;28;20133;-75
2022/01/16 12:54:18;;;;;;;34.17;16.98;;;-0.50;99.90;;;;;;4978519;28;19953;-74
2022/01/16 12:56:47;;;;;;;40.35;19.25;;;-0.60;99.90;;;;;;4980314;28;20145;-74
2022/01/16 12:59:36;;;;;;;39.40;21.63;;;-0.50;99.90;;;;;;4973240;28;20054;-74
2022/01/16 13:02:05;;;;;;;40.83;21.90;;;-0.40;99.90;;;;;;4976887;28;20071;-75
2022/01/16 13:04:43;;;;;;;33.33;18.65;;;-0.40;99.90;;;;;;4980791;28;20434;-74
2022/01/16 13:07:31;;;;;;;38.58;20.40;;;-0.50;99.90;;;;;;4985955;28;20138;-75
2022/01/16 13:09:58;;;;;;;31.67;16.83;;;-0.50;99.90;;;;;;4982894;28;20047;-74
2022/01/16 13:12:26;;;;;;;38.83;20.02;;;-0.40;99.90;;;;;;4986001;28;20137;-74
2022/01/16 13:15:00;;;;;;;32.88;17.75;;;-0.30;99.90;;;;;;4985172;28;20058;-74
2022/01/16 13:17:29;;;;;;;31.00;17.63;;;-0.30;99.90;;;;;;4983701;28;20084;-73
2022/01/16 13:19:58;;;;;;;34.92;19.10;;;-0.40;99.90;;;;;;4982889;28;20473;-73
2022/01/16 13:22:28;;;;;;;37.42;20.42;;;-0.30;99.90;;;;;;4984369;28;20139;-74
2022/01/16 13:25:03;;;;;;;33.70;19.23;;;-0.20;99.90;;;;;;4985758;28;20073;-73
2022/01/16 13:27:34;;;;;;;33.13;18.42;;;-0.40;99.90;;;;;;4984900;28;20042;-74